createdAt,value
2019-02-19T00:02:19.173Z,10.23
2019-02-19T00:04:51.020Z,10.83
2019-02-19T00:07:22.640Z,9.60
2019-02-19T00:09:54.005Z,10.60
2019-02-19T00:12:25.326Z,9.17
2019-02-19T00:14:56.998Z,9.33
2019-02-19T00:17:28.759Z,7.70
2019-02-19T00:20:00.112Z,7.93
2019-02-19T00:22:31.741Z,7.67
2019-02-19T00:25:04.949Z,8.90
2019-02-19T00:27:36.950Z,8.93
2019-02-19T00:30:08.702Z,11.10
2019-02-19T00:32:40.506Z,10.10
2019-02-19T00:35:13.006Z,7.37
2019-02-19T00:37:44.564Z,7.63
2019-02-19T00:40:16.105Z,7.93
2019-02-19T00:42:49.514Z,7.50
2019-02-19T00:45:21.410Z,8.50
2019-02-19T00:47:53.288Z,7.17
2019-02-19T01:24:49.684Z,8.60
2019-02-19T01:27:21.439Z,11.00
2019-02-19T01:29:52.844Z,10.37
2019-02-19T01:32:24.710Z,8.70
2019-02-19T01:34:56.457Z,10.70
2019-02-19T01:37:27.848Z,8.70
2019-02-19T01:39:59.460Z,9.77
2019-02-19T01:42:31.025Z,10.37
2019-02-19T01:45:02.484Z,8.63
2019-02-19T01:47:34.565Z,9.50
2019-02-19T01:50:06.986Z,7.00
2019-02-19T01:52:38.797Z,9.43
2019-02-19T01:55:10.111Z,9.53
2019-02-19T01:57:41.572Z,8.43
2019-02-19T02:00:13.542Z,8.90
2019-02-19T02:02:45.924Z,9.10
2019-02-19T02:05:17.276Z,10.87
2019-02-19T02:07:48.816Z,8.53
2019-02-19T02:10:20.049Z,9.17
2019-02-19T02:12:51.366Z,8.77
2019-02-19T02:15:22.598Z,7.00
2019-02-19T02:17:53.960Z,11.03
2019-02-19T02:20:27.504Z,8.50
2019-02-19T02:22:59.340Z,9.10
2019-02-19T02:25:31.035Z,9.53
2019-02-19T02:28:02.337Z,9.00
2019-02-19T02:30:33.643Z,8.43
2019-02-19T02:33:05.157Z,8.97
2019-02-19T02:35:36.547Z,11.97
2019-02-19T02:38:08.830Z,7.17
2019-02-19T02:40:40.281Z,7.93
2019-02-19T02:43:12.006Z,11.47
2019-02-19T02:45:52.757Z,10.37
2019-02-19T02:48:17.902Z,8.47
2019-02-19T02:50:49.229Z,8.77
2019-02-19T02:53:21.639Z,6.60
2019-02-19T02:55:52.929Z,8.27
2019-02-19T02:58:24.529Z,8.53
2019-02-19T03:00:57.585Z,10.73
2019-02-19T03:03:29.025Z,8.77
2019-02-19T03:06:33.557Z,10.13
2019-02-19T03:09:06.767Z,7.60
2019-02-19T03:11:39.997Z,10.27
2019-02-19T03:14:11.473Z,9.80
2019-02-19T03:16:42.813Z,8.20
2019-02-19T03:19:15.335Z,10.37
2019-02-19T03:21:46.923Z,10.37
2019-02-19T03:24:18.489Z,12.67
2019-02-19T03:26:51.370Z,15.40
2019-02-19T03:29:23.058Z,11.40
2019-02-19T03:31:54.792Z,9.40
2019-02-19T03:34:27.509Z,14.43
2019-02-19T03:37:00.603Z,12.93
2019-02-19T03:39:33.718Z,11.87
2019-02-19T03:42:05.494Z,15.67
2019-02-19T03:44:37.979Z,14.70
2019-02-19T03:47:10.307Z,13.60
2019-02-19T03:49:42.039Z,15.43
2019-02-19T03:52:13.857Z,14.13
2019-02-19T03:54:45.736Z,13.60
2019-02-19T03:57:17.001Z,15.70
2019-02-19T03:59:48.618Z,18.10
2019-02-19T04:02:19.969Z,14.20
2019-02-19T04:04:51.475Z,16.27
2019-02-19T04:07:22.934Z,16.27
2019-02-19T04:09:54.286Z,17.07
2019-02-19T04:12:25.630Z,16.40
2019-02-19T04:14:57.090Z,14.33
2019-02-19T04:17:28.858Z,14.63
2019-02-19T04:20:00.532Z,18.80
2019-02-19T04:22:32.064Z,14.37
2019-02-19T04:25:03.434Z,18.17
2019-02-19T04:27:34.966Z,14.63
2019-02-19T04:30:07.094Z,18.37
2019-02-19T04:32:38.386Z,16.57
2019-02-19T04:35:11.524Z,16.20
2019-02-19T04:37:43.031Z,16.90
2019-02-19T04:40:32.920Z,15.03
2019-02-19T04:43:04.362Z,16.37
2019-02-19T04:45:37.490Z,16.77
2019-02-19T04:48:11.006Z,13.93
2019-02-19T04:50:42.654Z,20.27
2019-02-19T04:53:14.074Z,19.07
2019-02-19T04:55:45.490Z,18.93
2019-02-19T04:58:17.921Z,20.57
2019-02-19T05:00:49.354Z,19.50
2019-02-19T05:03:20.704Z,17.27
2019-02-19T05:05:52.423Z,18.40
2019-02-19T05:08:23.975Z,21.50
2019-02-19T05:10:56.400Z,21.33
2019-02-19T05:13:27.737Z,22.50
2019-02-19T05:15:59.261Z,20.00
2019-02-19T05:18:30.549Z,19.70
2019-02-19T05:21:02.277Z,21.07
2019-02-19T05:23:33.967Z,16.90
2019-02-19T05:26:05.522Z,19.83
2019-02-19T05:28:36.982Z,22.83
2019-02-19T05:31:08.468Z,23.20
2019-02-19T05:33:39.731Z,20.50
2019-02-19T05:36:11.482Z,20.37
2019-02-19T05:38:43.157Z,20.80
2019-02-19T05:41:14.619Z,22.73
2019-02-19T05:43:46.030Z,22.43
2019-02-19T05:46:18.454Z,21.17
2019-02-19T05:48:50.229Z,19.53
2019-02-19T05:51:21.993Z,22.77
2019-02-19T05:53:53.450Z,21.20
2019-02-19T05:56:24.817Z,22.20
2019-02-19T05:58:56.442Z,18.87
2019-02-19T06:01:27.824Z,22.77
2019-02-19T06:03:59.708Z,18.47
2019-02-19T06:06:31.133Z,21.90
2019-02-19T06:09:02.828Z,22.03
2019-02-19T06:11:35.226Z,22.70
2019-02-19T06:14:06.656Z,17.37
2019-02-19T06:16:38.161Z,21.03
2019-02-19T06:19:10.658Z,19.20
2019-02-19T06:21:42.276Z,19.47
2019-02-19T06:24:14.067Z,19.73
2019-02-19T06:26:45.482Z,24.17
2019-02-19T06:29:17.226Z,17.73
2019-02-19T06:31:48.547Z,22.83
2019-02-19T06:34:19.982Z,22.13
2019-02-19T06:36:52.769Z,22.33
2019-02-19T06:39:26.282Z,18.00
2019-02-19T06:41:58.360Z,19.87
2019-02-19T06:44:31.503Z,25.20
2019-02-19T06:47:06.950Z,24.50
2019-02-19T06:49:36.938Z,23.17
2019-02-19T06:52:08.205Z,20.03
2019-02-19T06:54:39.598Z,19.00
2019-02-19T06:57:11.026Z,22.97
2019-02-19T06:59:42.449Z,20.60
2019-02-19T07:02:32.421Z,19.27
2019-02-19T07:05:06.535Z,17.53
2019-02-19T07:07:38.352Z,22.40
2019-02-19T07:10:09.958Z,20.03
2019-02-19T07:12:44.422Z,21.23
2019-02-19T07:15:15.805Z,24.77
2019-02-19T07:17:47.128Z,21.30
2019-02-19T07:20:18.544Z,18.90
2019-02-19T07:22:51.743Z,22.43
2019-02-19T07:25:23.429Z,21.03
2019-02-19T07:27:55.282Z,19.60
2019-02-19T07:30:26.683Z,21.77
2019-02-19T07:32:58.117Z,21.43
2019-02-19T07:35:30.725Z,22.27
2019-02-19T07:38:02.409Z,18.93
2019-02-19T07:40:33.941Z,24.03
2019-02-19T07:43:05.543Z,20.40
2019-02-19T07:45:37.006Z,18.53
2019-02-19T07:48:08.671Z,21.37
2019-02-19T07:50:40.483Z,20.90
2019-02-19T07:53:13.733Z,24.50
2019-02-19T07:55:45.123Z,17.83
2019-02-19T07:58:16.803Z,18.73
2019-02-19T08:00:48.627Z,23.37
2019-02-19T08:03:20.173Z,18.00
2019-02-19T08:05:53.177Z,18.03
2019-02-19T08:08:25.469Z,20.03
2019-02-19T08:10:57.039Z,19.27
2019-02-19T08:13:28.396Z,23.97
2019-02-19T08:16:00.097Z,17.67
2019-02-19T08:18:32.187Z,13.00
2019-02-19T08:21:03.715Z,18.07
2019-02-19T08:23:36.284Z,23.57
2019-02-19T08:26:08.897Z,16.33
2019-02-19T08:28:40.497Z,21.37
2019-02-19T08:31:15.551Z,16.03
2019-02-19T08:33:49.213Z,19.43
2019-02-19T08:36:20.839Z,16.97
2019-02-19T08:38:52.207Z,14.47
2019-02-19T08:41:23.627Z,16.20
2019-02-19T08:43:55.159Z,19.43
2019-02-19T08:46:28.037Z,21.83
2019-02-19T08:48:59.398Z,15.10
2019-02-19T08:51:31.007Z,16.80
2019-02-19T08:54:03.162Z,20.47
2019-02-19T08:56:34.469Z,17.20
2019-02-19T08:59:06.147Z,14.73
2019-02-19T09:01:37.746Z,16.07
2019-02-19T09:04:10.720Z,14.90
2019-02-19T09:06:43.811Z,16.53
2019-02-19T09:09:16.340Z,11.80
2019-02-19T09:11:48.453Z,12.37
2019-02-19T09:14:19.811Z,13.30
2019-02-19T09:16:51.219Z,12.90
2019-02-19T09:19:22.751Z,15.93
2019-02-19T09:21:54.157Z,16.83
2019-02-19T09:24:25.449Z,17.37
2019-02-19T09:26:58.883Z,15.53
2019-02-19T09:29:30.293Z,20.80
2019-02-19T09:32:01.793Z,11.83
2019-02-19T09:34:33.271Z,18.87
2019-02-19T09:37:06.360Z,13.87
2019-02-19T09:39:37.868Z,18.27
2019-02-19T09:42:10.014Z,16.87
2019-02-19T09:44:41.578Z,14.27
2019-02-19T09:47:14.043Z,16.23
2019-02-19T09:49:45.864Z,14.53
2019-02-19T09:52:17.793Z,14.53
2019-02-19T09:54:49.448Z,13.50
2019-02-19T09:57:22.395Z,14.23
2019-02-19T09:59:53.704Z,14.17
2019-02-19T10:02:25.354Z,20.13
2019-02-19T10:04:57.792Z,13.83
2019-02-19T10:07:29.234Z,15.73
2019-02-19T10:10:00.766Z,15.87
2019-02-19T10:12:33.368Z,13.03
2019-02-19T10:15:05.094Z,14.00
2019-02-19T10:17:36.620Z,12.03
2019-02-19T10:20:13.425Z,11.50
2019-02-19T10:22:45.407Z,16.77
2019-02-19T10:25:16.980Z,15.13
2019-02-19T10:27:48.320Z,13.13
2019-02-19T10:30:23.760Z,18.27
2019-02-19T10:32:55.751Z,12.00
2019-02-19T10:35:27.628Z,14.37
2019-02-19T10:37:58.924Z,11.30
2019-02-19T10:40:30.236Z,11.00
2019-02-19T10:43:02.339Z,11.60
2019-02-19T10:45:33.775Z,15.00
2019-02-19T10:48:05.450Z,12.90
2019-02-19T10:50:40.142Z,12.17
2019-02-19T10:53:12.425Z,12.60
2019-02-19T10:55:43.764Z,16.07
2019-02-19T10:58:22.647Z,9.30
2019-02-19T11:00:48.687Z,15.43
2019-02-19T11:03:20.300Z,11.97
2019-02-19T11:05:51.566Z,10.33
2019-02-19T11:08:23.075Z,10.83
2019-02-19T11:10:54.432Z,11.97
2019-02-19T11:13:26.035Z,10.27
2019-02-19T11:15:57.531Z,12.83
2019-02-19T11:18:29.068Z,11.37
2019-02-19T11:21:00.511Z,9.87
2019-02-19T11:23:33.816Z,10.90
2019-02-19T11:26:05.712Z,10.27
2019-02-19T11:28:37.027Z,10.40
2019-02-19T11:31:08.422Z,10.47
2019-02-19T11:33:40.000Z,14.53
2019-02-19T11:36:11.996Z,14.23
2019-02-19T11:38:43.455Z,13.13
2019-02-19T11:41:14.883Z,7.23
2019-02-19T11:43:46.705Z,12.17
2019-02-19T11:46:18.476Z,13.23
2019-02-19T11:48:50.012Z,12.03
2019-02-19T11:51:21.436Z,11.43
2019-02-19T11:53:52.773Z,7.97
2019-02-19T11:56:24.340Z,11.53
2019-02-19T11:58:55.943Z,9.67
2019-02-19T12:01:27.895Z,12.40
2019-02-19T12:04:00.274Z,11.73
2019-02-19T12:06:33.566Z,12.30
2019-02-19T12:09:05.839Z,13.50
2019-02-19T12:11:37.837Z,12.23
2019-02-19T12:14:09.403Z,15.00
2019-02-19T12:16:40.899Z,13.27
2019-02-19T12:19:12.267Z,11.07
2019-02-19T12:21:44.009Z,12.97
2019-02-19T12:24:15.351Z,13.50
2019-02-19T12:26:51.023Z,12.17
2019-02-19T12:29:22.895Z,8.00
2019-02-19T12:31:54.529Z,12.03
2019-02-19T12:34:25.946Z,11.40
2019-02-19T12:36:58.715Z,14.40
2019-02-19T12:39:31.446Z,14.80
2019-02-19T12:42:03.905Z,9.20
2019-02-19T12:44:35.364Z,9.87
2019-02-19T12:47:07.059Z,9.93
2019-02-19T12:49:39.218Z,9.03
2019-02-19T12:52:11.181Z,12.73
2019-02-19T12:54:42.765Z,9.33
2019-02-19T12:57:14.939Z,6.47
2019-02-19T12:59:56.245Z,13.13
2019-02-19T13:02:21.400Z,8.10
2019-02-19T13:04:53.266Z,9.20
2019-02-19T13:07:25.091Z,13.33
2019-02-19T13:09:58.339Z,9.33
2019-02-19T13:12:29.959Z,12.60
2019-02-19T13:15:01.381Z,12.57
2019-02-19T13:17:34.229Z,8.93
2019-02-19T13:20:06.121Z,10.93
2019-02-19T13:22:37.958Z,9.47
2019-02-19T13:25:10.125Z,10.47
2019-02-19T13:27:42.039Z,9.10
2019-02-19T13:30:15.119Z,9.43
2019-02-19T13:32:46.687Z,10.00
2019-02-19T13:35:19.652Z,10.10
2019-02-19T13:37:51.764Z,10.47
2019-02-19T13:40:23.300Z,11.07
2019-02-19T13:42:55.286Z,12.30
2019-02-19T13:45:26.706Z,8.07
2019-02-19T13:48:05.696Z,15.10
2019-02-19T13:50:31.850Z,13.97
2019-02-19T13:53:13.980Z,12.77
2019-02-19T13:55:51.306Z,12.37
2019-02-19T13:58:22.843Z,11.73
2019-02-19T14:00:55.596Z,14.03
2019-02-19T14:03:28.347Z,10.50
2019-02-19T14:05:59.840Z,10.10
2019-02-19T14:08:31.170Z,8.80
2019-02-19T14:11:02.686Z,7.07
2019-02-19T14:13:34.333Z,10.27
2019-02-19T14:16:27.743Z,9.87
2019-02-19T14:19:21.215Z,8.90
2019-02-19T14:21:57.366Z,8.50
2019-02-19T14:24:45.760Z,12.30
2019-02-19T14:27:51.928Z,8.37
2019-02-19T14:30:42.202Z,11.13
2019-02-19T14:33:35.645Z,10.17
2019-02-19T14:36:38.279Z,9.37
2019-02-19T14:39:28.596Z,15.33
2019-02-19T14:42:25.799Z,10.50
2019-02-19T14:45:14.857Z,10.57
2019-02-19T14:48:05.781Z,16.70
2019-02-19T14:51:02.167Z,11.87
2019-02-19T14:54:02.714Z,8.53
2019-02-19T14:56:49.860Z,6.20
2019-02-19T14:59:44.507Z,12.27
2019-02-19T15:02:33.509Z,14.93
2019-02-19T15:05:23.325Z,8.40
2019-02-19T15:08:12.564Z,9.77
2019-02-19T15:11:21.252Z,13.03
2019-02-19T15:14:03.399Z,9.77
2019-02-19T15:16:59.944Z,8.70
2019-02-19T15:19:56.451Z,9.87
2019-02-19T15:22:49.615Z,5.93
2019-02-19T15:25:50.875Z,8.43
2019-02-19T15:28:37.736Z,8.70
2019-02-19T15:31:27.151Z,7.33
2019-02-19T15:34:17.937Z,13.27
2019-02-19T15:37:20.241Z,9.63
2019-02-19T15:40:14.063Z,11.43
2019-02-19T15:43:03.279Z,12.03
2019-02-19T15:45:56.953Z,9.07
2019-02-19T15:48:58.851Z,5.60
2019-02-19T15:52:02.153Z,6.93
2019-02-19T15:54:56.526Z,5.47
2019-02-19T15:57:36.296Z,9.73
2019-02-19T16:00:45.473Z,8.47
2019-02-19T16:03:30.946Z,7.37
2019-02-19T16:06:24.595Z,7.63
2019-02-19T16:09:04.848Z,8.13
2019-02-19T16:11:50.148Z,7.53
2019-02-19T16:14:40.810Z,8.60
2019-02-19T16:17:31.332Z,5.70
2019-02-19T16:20:14.210Z,6.93
2019-02-19T16:22:56.012Z,9.33
2019-02-19T16:25:45.809Z,9.17
2019-02-19T16:28:35.000Z,11.77
2019-02-19T16:31:27.237Z,9.30
2019-02-19T16:34:25.534Z,11.40
2019-02-19T16:37:31.364Z,9.47
2019-02-19T16:40:21.279Z,8.33
2019-02-19T16:43:26.815Z,13.33
2019-02-19T16:46:07.495Z,9.73
2019-02-19T16:48:54.957Z,9.60
2019-02-19T16:51:45.312Z,6.97
2019-02-19T16:54:47.580Z,9.13
2019-02-19T16:57:41.129Z,6.27
2019-02-19T17:00:25.466Z,9.73
2019-02-19T17:03:15.788Z,9.07
2019-02-19T17:05:58.277Z,5.37
2019-02-19T17:08:48.823Z,8.43
2019-02-19T17:11:33.200Z,6.03
2019-02-19T17:14:32.737Z,7.37
2019-02-19T17:17:24.466Z,5.73
2019-02-19T17:20:28.310Z,7.77
2019-02-19T17:23:01.980Z,7.93
2019-02-19T17:25:48.812Z,11.33
2019-02-19T17:28:31.173Z,9.77
2019-02-19T17:31:25.966Z,10.07
2019-02-19T17:34:10.393Z,8.67
2019-02-19T17:37:00.702Z,11.63
2019-02-19T17:40:03.830Z,7.73
2019-02-19T17:43:12.278Z,8.77
2019-02-19T17:46:02.022Z,10.17
2019-02-19T17:48:54.944Z,9.40
2019-02-19T17:51:35.907Z,9.07
2019-02-19T17:54:26.460Z,11.53
2019-02-19T17:57:18.728Z,9.00
2019-02-19T17:59:56.188Z,12.07
2019-02-19T18:02:55.513Z,14.10
2019-02-19T18:05:40.876Z,12.93
2019-02-19T18:08:23.804Z,10.63
2019-02-19T18:11:14.065Z,10.40
2019-02-19T18:13:53.824Z,14.17
2019-02-19T18:16:44.606Z,13.07
2019-02-19T18:19:16.797Z,12.07
2019-02-19T18:21:48.527Z,12.17
2019-02-19T18:24:20.191Z,12.80
2019-02-19T18:26:52.021Z,8.60
2019-02-19T18:29:27.377Z,11.67
2019-02-19T18:31:58.801Z,11.50
2019-02-19T18:34:30.606Z,11.53
2019-02-19T18:37:02.086Z,12.40
2019-02-19T18:39:33.625Z,14.90
2019-02-19T18:42:06.275Z,12.80
2019-02-19T18:44:37.987Z,13.60
2019-02-19T18:47:09.613Z,16.43
2019-02-19T18:49:42.493Z,20.00
2019-02-19T18:52:14.179Z,17.77
2019-02-19T18:54:45.620Z,15.40
2019-02-19T18:57:17.046Z,21.53
2019-02-19T18:59:48.869Z,19.23
2019-02-19T19:02:20.402Z,19.40
2019-02-19T19:04:55.484Z,11.70
2019-02-19T19:07:29.094Z,18.87
2019-02-19T19:10:02.683Z,11.97
2019-02-19T19:12:35.457Z,15.47
2019-02-19T19:15:07.627Z,16.37
2019-02-19T19:17:39.757Z,16.37
2019-02-19T19:20:11.805Z,13.90
2019-02-19T19:22:43.805Z,11.80
2019-02-19T19:25:15.481Z,14.13
2019-02-19T19:27:47.238Z,16.57
2019-02-19T19:30:18.799Z,14.80
2019-02-19T19:32:50.303Z,16.73
2019-02-19T19:35:21.772Z,14.97
2019-02-19T19:37:53.472Z,12.47
2019-02-19T19:40:27.626Z,16.67
2019-02-19T19:42:59.152Z,12.20
2019-02-19T19:45:32.917Z,16.37
2019-02-19T19:48:06.151Z,12.83
2019-02-19T19:50:38.058Z,14.53
2019-02-19T19:53:09.788Z,23.03
2019-02-19T19:55:43.148Z,21.87
2019-02-19T19:58:17.877Z,20.57
2019-02-19T20:00:52.028Z,21.93
2019-02-19T20:03:25.320Z,30.67
2019-02-19T20:05:57.249Z,54.67
2019-02-19T20:08:29.963Z,54.23
2019-02-19T20:11:01.446Z,62.37
2019-02-19T20:13:32.746Z,77.60
2019-02-19T20:16:05.220Z,102.90
2019-02-19T20:18:39.134Z,89.23
2019-02-19T20:21:11.634Z,51.07
2019-02-19T20:23:43.153Z,61.13
2019-02-19T20:26:15.538Z,75.97
2019-02-19T20:28:46.985Z,113.60
2019-02-19T20:31:20.200Z,106.93
2019-02-19T20:33:51.846Z,93.47
2019-02-19T20:36:28.966Z,53.60
2019-02-19T20:39:04.415Z,84.87
2019-02-19T20:41:37.651Z,104.83
2019-02-19T20:44:09.105Z,134.13
2019-02-19T20:46:42.158Z,78.83
2019-02-19T20:49:13.583Z,73.30
2019-02-19T20:51:46.439Z,45.43
2019-02-19T20:54:17.964Z,27.60
2019-02-19T20:56:50.087Z,19.07
2019-02-19T20:59:21.525Z,23.17
2019-02-19T21:01:54.528Z,19.70
2019-02-19T21:04:26.366Z,20.97
2019-02-19T21:07:00.642Z,19.47
2019-02-19T21:09:42.978Z,21.67
2019-02-19T21:12:05.849Z,17.77
2019-02-19T21:14:37.722Z,19.27
2019-02-19T21:17:09.549Z,17.47
2019-02-19T21:19:41.171Z,16.07
2019-02-19T21:22:12.773Z,20.47
2019-02-19T21:24:46.783Z,16.83
2019-02-19T21:27:19.364Z,14.73
2019-02-19T21:29:52.089Z,13.73
2019-02-19T21:32:23.929Z,16.43
2019-02-19T21:34:56.347Z,15.77
2019-02-19T21:37:27.887Z,15.53
2019-02-19T21:39:59.319Z,15.87
2019-02-19T21:42:30.651Z,20.00
2019-02-19T21:45:02.629Z,13.43
2019-02-19T21:47:34.469Z,20.60
2019-02-19T21:50:06.563Z,15.57
2019-02-19T21:52:38.817Z,17.03
2019-02-19T21:55:10.270Z,18.03
2019-02-19T21:57:42.191Z,25.27
2019-02-19T22:00:16.298Z,22.27
2019-02-19T22:02:49.720Z,24.63
2019-02-19T22:05:21.661Z,20.53
2019-02-19T22:07:53.070Z,16.00
2019-02-19T22:10:26.412Z,18.57
2019-02-19T22:12:57.826Z,20.73
2019-02-19T22:15:29.566Z,16.97
2019-02-19T22:18:01.007Z,17.47
2019-02-19T22:20:47.100Z,17.53
2019-02-19T22:23:19.320Z,17.77
2019-02-19T22:25:50.737Z,18.53
2019-02-19T22:28:22.943Z,19.70
2019-02-19T22:30:54.631Z,16.00
2019-02-19T22:33:25.859Z,17.67
2019-02-19T22:35:57.850Z,18.97
2019-02-19T22:38:29.206Z,18.37
2019-02-19T22:41:01.076Z,24.83
2019-02-19T22:43:33.945Z,18.03
2019-02-19T22:46:07.153Z,19.80
2019-02-19T22:48:38.526Z,19.03
2019-02-19T22:51:10.183Z,26.20
2019-02-19T22:53:54.142Z,21.97
2019-02-19T22:56:36.282Z,22.10
2019-02-19T22:59:07.671Z,19.77
2019-02-19T23:01:48.323Z,23.87
2019-02-19T23:04:20.089Z,30.57
2019-02-19T23:06:51.688Z,28.60
2019-02-19T23:09:23.214Z,23.00
2019-02-19T23:11:54.752Z,24.73
2019-02-19T23:14:26.202Z,27.17
2019-02-19T23:16:57.874Z,25.57
2019-02-19T23:19:30.893Z,26.13
2019-02-19T23:22:02.184Z,19.97
2019-02-19T23:24:33.509Z,21.10
2019-02-19T23:27:06.248Z,21.40
2019-02-19T23:29:37.890Z,22.47
2019-02-19T23:32:10.621Z,16.80
2019-02-19T23:34:41.833Z,19.50
2019-02-19T23:37:22.111Z,20.37
2019-02-19T23:39:53.445Z,14.87
2019-02-19T23:42:24.754Z,21.10
2019-02-19T23:44:56.620Z,21.37
2019-02-19T23:47:27.995Z,16.70
2019-02-19T23:49:59.341Z,17.20
2019-02-19T23:52:32.730Z,17.33
2019-02-19T23:55:05.033Z,20.50
2019-02-19T23:57:36.843Z,22.00
